createdAt,value
2023-03-21T00:00:17.270Z,873.00
2023-03-21T00:01:16.209Z,874.00
2023-03-21T00:02:16.223Z,873.00
2023-03-21T00:03:16.187Z,875.00
2023-03-21T00:04:16.172Z,875.00
2023-03-21T00:05:16.350Z,872.00
2023-03-21T00:06:16.112Z,872.00
2023-03-21T00:07:16.075Z,873.00
2023-03-21T00:08:16.084Z,870.00
2023-03-21T00:09:16.044Z,870.00
2023-03-21T00:10:23.956Z,869.00
2023-03-21T00:11:17.163Z,867.00
2023-03-21T00:12:15.979Z,867.00
2023-03-21T00:13:15.972Z,866.00
2023-03-21T00:14:15.932Z,865.00
2023-03-21T00:15:15.893Z,867.00
2023-03-21T00:16:17.206Z,866.00
2023-03-21T00:17:16.847Z,868.00
2023-03-21T00:18:15.850Z,862.00
2023-03-21T00:19:15.814Z,861.00
2023-03-21T00:20:15.790Z,862.00
2023-03-21T00:21:44.004Z,863.00
2023-03-21T00:22:16.718Z,861.00
2023-03-21T00:23:15.694Z,860.00
2023-03-21T00:24:15.692Z,858.00
2023-03-21T00:25:15.653Z,857.00
2023-03-21T00:26:15.636Z,853.00
2023-03-21T00:27:41.370Z,855.00
2023-03-21T00:28:16.589Z,855.00
2023-03-21T00:29:15.542Z,856.00
2023-03-21T00:30:15.569Z,857.00
2023-03-21T00:31:15.512Z,854.00
2023-03-21T00:32:15.493Z,854.00
2023-03-21T00:33:22.281Z,854.00
2023-03-21T00:34:20.047Z,853.00
2023-03-21T00:35:51.751Z,854.00
2023-03-21T00:36:16.537Z,855.00
2023-03-21T00:37:15.402Z,853.00
2023-03-21T00:38:15.382Z,851.00
2023-03-21T00:39:15.387Z,849.00
2023-03-21T00:40:25.746Z,848.00
2023-03-21T00:41:26.351Z,846.00
2023-03-21T00:42:16.305Z,844.00
2023-03-21T00:43:15.251Z,845.00
2023-03-21T00:44:15.235Z,846.00
2023-03-21T00:45:15.209Z,847.00
2023-03-21T00:46:15.222Z,849.00
2023-03-21T00:47:15.184Z,847.00
2023-03-21T00:48:15.152Z,849.00
2023-03-21T00:49:15.107Z,851.00
2023-03-21T00:50:15.077Z,849.00
2023-03-21T00:51:15.068Z,850.00
2023-03-21T00:52:20.439Z,849.00
2023-03-21T00:53:16.028Z,846.00
2023-03-21T00:54:14.981Z,842.00
2023-03-21T00:55:14.960Z,844.00
2023-03-21T00:56:14.914Z,841.00
2023-03-21T00:57:14.898Z,842.00
2023-03-21T00:58:15.529Z,842.00
2023-03-21T00:59:14.833Z,840.00
2023-03-21T01:00:14.831Z,838.00
2023-03-21T01:01:14.839Z,837.00
2023-03-21T01:02:15.193Z,835.00
2023-03-21T01:03:24.586Z,835.00
2023-03-21T01:04:15.710Z,833.00
2023-03-21T01:05:14.686Z,833.00
2023-03-21T01:06:14.655Z,833.00
2023-03-21T01:07:15.515Z,830.00
2023-03-21T01:08:26.586Z,828.00
2023-03-21T01:09:15.587Z,829.00
2023-03-21T01:10:14.544Z,831.00
2023-03-21T01:11:14.516Z,829.00
2023-03-21T01:12:14.500Z,826.00
2023-03-21T01:13:14.459Z,827.00
2023-03-21T01:14:22.618Z,827.00
2023-03-21T01:15:15.413Z,826.00
2023-03-21T01:16:14.527Z,825.00
2023-03-21T01:17:14.365Z,826.00
2023-03-21T01:18:14.355Z,827.00
2023-03-21T01:19:25.044Z,827.00
2023-03-21T01:20:15.321Z,828.00
2023-03-21T01:21:14.300Z,827.00
2023-03-21T01:22:14.284Z,826.00
2023-03-21T01:23:14.242Z,827.00
2023-03-21T01:24:14.228Z,825.00
2023-03-21T01:25:22.370Z,823.00
2023-03-21T01:26:15.179Z,824.00
2023-03-21T01:27:14.175Z,823.00
2023-03-21T01:28:14.224Z,822.00
2023-03-21T01:29:14.120Z,822.00
2023-03-21T01:30:20.273Z,822.00
2023-03-21T01:31:15.178Z,823.00
2023-03-21T01:32:14.060Z,823.00
2023-03-21T01:33:14.044Z,824.00
2023-03-21T01:34:14.032Z,823.00
2023-03-21T01:35:14.009Z,823.00
2023-03-21T01:36:14.680Z,826.00
2023-03-21T01:37:13.962Z,824.00
2023-03-21T01:38:13.985Z,824.00
2023-03-21T01:39:13.913Z,823.00
2023-03-21T01:40:13.909Z,820.00
2023-03-21T01:41:19.504Z,816.00
2023-03-21T01:42:14.877Z,814.00
2023-03-21T01:43:13.834Z,814.00
2023-03-21T01:44:13.823Z,813.00
2023-03-21T01:45:13.803Z,810.00
2023-03-21T01:46:13.800Z,808.00
2023-03-21T01:47:13.778Z,807.00
2023-03-21T01:48:13.805Z,805.00
2023-03-21T01:49:13.716Z,805.00
2023-03-21T01:50:13.700Z,804.00
2023-03-21T01:51:13.684Z,801.00
2023-03-21T01:52:23.604Z,804.00
2023-03-21T01:53:14.646Z,803.00
2023-03-21T01:54:13.656Z,803.00
2023-03-21T01:55:13.614Z,802.00
2023-03-21T01:56:13.585Z,805.00
2023-03-21T01:57:13.576Z,805.00
2023-03-21T01:58:13.550Z,801.00
2023-03-21T01:59:13.549Z,803.00
2023-03-21T02:00:13.510Z,804.00
2023-03-21T02:01:13.522Z,804.00
2023-03-21T02:02:13.491Z,803.00
2023-03-21T02:03:21.015Z,803.00
2023-03-21T02:04:14.497Z,801.00
2023-03-21T02:05:13.419Z,803.00
2023-03-21T02:06:13.402Z,803.00
2023-03-21T02:07:13.372Z,802.00
2023-03-21T02:08:13.355Z,804.00
2023-03-21T02:09:13.328Z,805.00
2023-03-21T02:10:13.308Z,806.00
2023-03-21T02:11:13.286Z,806.00
2023-03-21T02:12:13.298Z,806.00
2023-03-21T02:13:13.253Z,806.00
2023-03-21T02:14:15.298Z,805.00
2023-03-21T02:15:13.229Z,804.00
2023-03-21T02:16:13.289Z,805.00
2023-03-21T02:17:13.175Z,803.00
2023-03-21T02:18:13.154Z,803.00
2023-03-21T02:19:15.740Z,801.00
2023-03-21T02:20:13.096Z,797.00
2023-03-21T02:21:13.089Z,795.00
2023-03-21T02:22:13.052Z,796.00
2023-03-21T02:23:13.032Z,793.00
2023-03-21T02:24:12.998Z,792.00
2023-03-21T02:25:21.788Z,792.00
2023-03-21T02:26:13.988Z,791.00
2023-03-21T02:27:13.004Z,792.00
2023-03-21T02:28:12.937Z,792.00
2023-03-21T02:29:12.889Z,789.00
2023-03-21T02:30:17.452Z,788.00
2023-03-21T02:31:13.902Z,787.00
2023-03-21T02:32:22.668Z,786.00
2023-03-21T02:33:13.830Z,784.00
2023-03-21T02:34:12.792Z,782.00
2023-03-21T02:35:12.772Z,782.00
2023-03-21T02:36:14.893Z,783.00
2023-03-21T02:37:12.740Z,783.00
2023-03-21T02:38:12.740Z,785.00
2023-03-21T02:39:12.708Z,785.00
2023-03-21T02:40:12.689Z,784.00
2023-03-21T02:41:18.349Z,783.00
2023-03-21T02:42:13.645Z,784.00
2023-03-21T02:43:22.618Z,785.00
2023-03-21T02:44:13.660Z,783.00
2023-03-21T02:45:12.580Z,782.00
2023-03-21T02:46:12.598Z,781.00
2023-03-21T02:47:12.572Z,779.00
2023-03-21T02:48:25.537Z,781.00
2023-03-21T02:49:13.500Z,783.00
2023-03-21T02:50:12.484Z,784.00
2023-03-21T02:51:12.469Z,784.00
2023-03-21T02:52:18.753Z,784.00
2023-03-21T02:53:13.433Z,784.00
2023-03-21T02:54:41.891Z,786.00
2023-03-21T02:55:13.384Z,786.00
2023-03-21T02:56:12.391Z,787.00
2023-03-21T02:57:12.329Z,787.00
2023-03-21T02:58:13.579Z,788.00
2023-03-21T02:59:12.292Z,790.00
2023-03-21T03:00:16.501Z,790.00
2023-03-21T03:01:13.279Z,788.00
2023-03-21T03:02:12.223Z,782.00
2023-03-21T03:03:18.203Z,780.00
2023-03-21T03:04:13.219Z,784.00
2023-03-21T03:05:20.720Z,785.00
2023-03-21T03:06:13.146Z,786.00
2023-03-21T03:07:12.178Z,782.00
2023-03-21T03:08:12.125Z,782.00
2023-03-21T03:09:12.128Z,783.00
2023-03-21T03:10:12.064Z,783.00
2023-03-21T03:11:12.037Z,781.00
2023-03-21T03:12:12.009Z,780.00
2023-03-21T03:13:12.016Z,777.00
2023-03-21T03:14:32.490Z,775.00
2023-03-21T03:15:12.972Z,774.00
2023-03-21T03:16:11.978Z,775.00
2023-03-21T03:17:11.921Z,775.00
2023-03-21T03:18:11.896Z,774.00
2023-03-21T03:19:11.881Z,772.00
2023-03-21T03:20:16.498Z,773.00
2023-03-21T03:21:12.839Z,771.00
2023-03-21T03:22:11.822Z,770.00
2023-03-21T03:23:11.811Z,769.00
2023-03-21T03:24:11.815Z,768.00
2023-03-21T03:25:21.424Z,767.00
2023-03-21T03:26:12.756Z,767.00
2023-03-21T03:27:11.729Z,766.00
2023-03-21T03:28:11.715Z,765.00
2023-03-21T03:29:11.713Z,762.00
2023-03-21T03:30:11.666Z,761.00
2023-03-21T03:31:12.077Z,762.00
2023-03-21T03:32:11.650Z,759.00
2023-03-21T03:33:11.636Z,756.00
2023-03-21T03:34:11.584Z,755.00
2023-03-21T03:35:11.569Z,755.00
2023-03-21T03:36:18.854Z,754.00
2023-03-21T03:37:12.548Z,752.00
2023-03-21T03:38:11.505Z,753.00
2023-03-21T03:39:11.490Z,752.00
2023-03-21T03:40:11.476Z,751.00
2023-03-21T03:41:11.612Z,753.00
2023-03-21T03:42:25.435Z,751.00
2023-03-21T03:43:12.401Z,751.00
2023-03-21T03:44:11.382Z,752.00
2023-03-21T03:45:11.357Z,754.00
2023-03-21T03:46:11.363Z,758.00
2023-03-21T03:47:17.429Z,759.00
2023-03-21T03:48:12.355Z,758.00
2023-03-21T03:49:11.267Z,758.00
2023-03-21T03:50:11.252Z,757.00
2023-03-21T03:51:11.233Z,754.00
2023-03-21T03:52:11.200Z,751.00
2023-03-21T03:53:18.108Z,751.00
2023-03-21T03:54:12.203Z,749.00
2023-03-21T03:55:11.136Z,749.00
2023-03-21T03:56:11.139Z,747.00
2023-03-21T03:57:11.106Z,748.00
2023-03-21T03:58:21.820Z,750.00
2023-03-21T03:59:12.066Z,750.00
2023-03-21T04:00:11.060Z,749.00
2023-03-21T04:01:11.049Z,745.00
2023-03-21T04:02:11.079Z,746.00
2023-03-21T04:03:11.148Z,747.00
2023-03-21T04:04:13.544Z,744.00
2023-03-21T04:05:10.964Z,744.00
2023-03-21T04:06:10.951Z,745.00
2023-03-21T04:07:10.933Z,748.00
2023-03-21T04:08:10.904Z,749.00
2023-03-21T04:09:20.449Z,750.00
2023-03-21T04:10:11.864Z,748.00
2023-03-21T04:11:10.863Z,746.00
2023-03-21T04:12:10.831Z,744.00
2023-03-21T04:13:10.802Z,745.00
2023-03-21T04:14:10.803Z,747.00
2023-03-21T04:15:11.389Z,747.00
2023-03-21T04:16:10.783Z,744.00
2023-03-21T04:17:10.719Z,747.00
2023-03-21T04:18:10.698Z,748.00
2023-03-21T04:19:10.708Z,747.00
2023-03-21T04:20:15.193Z,747.00
2023-03-21T04:21:11.657Z,746.00
2023-03-21T04:22:10.646Z,746.00
2023-03-21T04:23:10.609Z,747.00
2023-03-21T04:24:10.584Z,748.00
2023-03-21T04:25:10.719Z,745.00
2023-03-21T04:26:10.542Z,746.00
2023-03-21T04:27:10.526Z,745.00
2023-03-21T04:28:10.518Z,745.00
2023-03-21T04:29:10.508Z,744.00
2023-03-21T04:30:10.543Z,742.00
2023-03-21T04:31:22.612Z,743.00
2023-03-21T04:32:11.471Z,744.00
2023-03-21T04:33:10.416Z,741.00
2023-03-21T04:34:10.369Z,739.00
2023-03-21T04:35:10.385Z,741.00
2023-03-21T04:36:10.408Z,740.00
2023-03-21T04:37:10.323Z,745.00
2023-03-21T04:38:10.278Z,746.00
2023-03-21T04:39:10.270Z,745.00
2023-03-21T04:40:10.244Z,743.00
2023-03-21T04:41:10.220Z,742.00
2023-03-21T04:42:10.212Z,741.00
2023-03-21T04:43:10.197Z,741.00
2023-03-21T04:44:10.168Z,741.00
2023-03-21T04:45:10.143Z,738.00
2023-03-21T04:46:10.208Z,736.00
2023-03-21T04:47:10.121Z,736.00
2023-03-21T04:48:10.104Z,735.00
2023-03-21T04:49:10.051Z,735.00
2023-03-21T04:50:10.005Z,735.00
2023-03-21T04:51:09.981Z,737.00
2023-03-21T04:52:09.941Z,739.00
2023-03-21T04:53:09.921Z,743.00
2023-03-21T04:54:09.898Z,742.00
2023-03-21T04:55:09.882Z,742.00
2023-03-21T04:56:09.834Z,737.00
2023-03-21T04:57:09.811Z,735.00
2023-03-21T04:58:09.785Z,738.00
2023-03-21T04:59:09.778Z,738.00
2023-03-21T05:00:09.734Z,738.00
2023-03-21T05:01:09.767Z,742.00
2023-03-21T05:02:09.689Z,741.00
2023-03-21T05:03:09.667Z,740.00
2023-03-21T05:04:09.730Z,737.00
2023-03-21T05:05:09.638Z,736.00
2023-03-21T05:06:09.641Z,735.00
2023-03-21T05:07:09.582Z,732.00
2023-03-21T05:08:09.543Z,731.00
2023-03-21T05:09:09.537Z,726.00
2023-03-21T05:10:09.510Z,725.00
2023-03-21T05:11:09.494Z,726.00
2023-03-21T05:12:09.455Z,725.00
2023-03-21T05:13:09.449Z,722.00
2023-03-21T05:14:09.415Z,724.00
2023-03-21T05:15:09.385Z,725.00
2023-03-21T05:16:09.371Z,723.00
2023-03-21T05:17:09.336Z,721.00
2023-03-21T05:18:09.321Z,722.00
2023-03-21T05:19:09.295Z,722.00
2023-03-21T05:20:09.290Z,724.00
2023-03-21T05:21:09.242Z,726.00
2023-03-21T05:22:09.223Z,727.00
2023-03-21T05:23:09.201Z,730.00
2023-03-21T05:24:09.169Z,729.00
2023-03-21T05:25:09.178Z,728.00
2023-03-21T05:26:09.165Z,728.00
2023-03-21T05:27:09.120Z,728.00
2023-03-21T05:28:09.100Z,727.00
2023-03-21T05:29:09.081Z,724.00
2023-03-21T05:30:09.077Z,722.00
2023-03-21T05:31:09.075Z,722.00
2023-03-21T05:32:09.016Z,722.00
2023-03-21T05:33:09.019Z,724.00
2023-03-21T05:34:09.017Z,725.00
2023-03-21T05:35:08.994Z,724.00
2023-03-21T05:36:09.027Z,725.00
2023-03-21T05:37:08.938Z,727.00
2023-03-21T05:38:08.912Z,726.00
2023-03-21T05:39:08.913Z,726.00
2023-03-21T05:40:08.893Z,722.00
2023-03-21T05:41:08.898Z,721.00
2023-03-21T05:42:08.850Z,719.00
2023-03-21T05:43:08.842Z,718.00
2023-03-21T05:44:08.811Z,719.00
2023-03-21T05:45:08.800Z,719.00
2023-03-21T05:46:08.861Z,717.00
2023-03-21T05:47:08.770Z,719.00
2023-03-21T05:48:08.767Z,721.00
2023-03-21T05:49:08.743Z,721.00
2023-03-21T05:50:08.717Z,721.00
2023-03-21T05:51:08.740Z,720.00
2023-03-21T05:52:08.693Z,722.00
2023-03-21T05:53:08.680Z,721.00
2023-03-21T05:54:08.663Z,721.00
2023-03-21T05:55:08.664Z,720.00
2023-03-21T05:56:08.685Z,718.00
2023-03-21T05:57:08.633Z,715.00
2023-03-21T05:58:08.605Z,713.00
2023-03-21T05:59:08.616Z,712.00
2023-03-21T06:00:08.591Z,712.00
2023-03-21T06:01:08.647Z,713.00
2023-03-21T06:02:08.574Z,713.00
2023-03-21T06:03:08.560Z,715.00
2023-03-21T06:04:08.561Z,714.00
2023-03-21T06:05:08.509Z,712.00
2023-03-21T06:06:08.508Z,713.00
2023-03-21T06:07:08.518Z,712.00
2023-03-21T06:08:08.464Z,711.00
2023-03-21T06:09:08.466Z,711.00
2023-03-21T06:10:08.442Z,710.00
2023-03-21T06:11:08.435Z,708.00
2023-03-21T06:12:08.420Z,708.00
2023-03-21T06:13:08.377Z,709.00
2023-03-21T06:14:08.397Z,709.00
2023-03-21T06:15:08.375Z,707.00
2023-03-21T06:16:08.354Z,708.00
2023-03-21T06:17:08.328Z,708.00
2023-03-21T06:18:08.312Z,709.00
2023-03-21T06:19:08.284Z,709.00
2023-03-21T06:20:08.270Z,708.00
2023-03-21T06:21:08.231Z,706.00
2023-03-21T06:22:08.256Z,704.00
2023-03-21T06:23:08.233Z,704.00
2023-03-21T06:24:08.194Z,704.00
2023-03-21T06:25:08.167Z,706.00
2023-03-21T06:26:08.143Z,708.00
2023-03-21T06:27:08.127Z,708.00
2023-03-21T06:28:08.103Z,708.00
2023-03-21T06:29:08.138Z,707.00
2023-03-21T06:30:08.072Z,707.00
2023-03-21T06:31:08.090Z,708.00
2023-03-21T06:32:08.060Z,707.00
2023-03-21T06:33:08.044Z,709.00
2023-03-21T06:34:07.995Z,775.00
2023-03-21T06:35:07.977Z,805.00
2023-03-21T06:36:08.022Z,964.00
2023-03-21T06:37:08.162Z,961.00
2023-03-21T06:38:08.705Z,958.00
2023-03-21T06:39:07.911Z,964.00
2023-03-21T06:40:07.887Z,1013.00
2023-03-21T06:41:07.866Z,1020.00
2023-03-21T06:42:07.886Z,1026.00
2023-03-21T06:43:07.822Z,1035.00
2023-03-21T06:44:07.805Z,1044.00
2023-03-21T06:45:07.843Z,1055.00
2023-03-21T06:46:07.875Z,1062.00
2023-03-21T06:47:07.807Z,1070.00
2023-03-21T06:48:09.372Z,1075.00
2023-03-21T06:49:07.716Z,1085.00
2023-03-21T06:50:07.688Z,1108.00
2023-03-21T06:51:07.655Z,1142.00
2023-03-21T06:52:07.687Z,1126.00
2023-03-21T06:53:07.600Z,1002.00
2023-03-21T06:54:07.783Z,986.00
2023-03-21T06:55:07.566Z,970.00
2023-03-21T06:56:07.566Z,916.00
2023-03-21T06:57:07.574Z,918.00
2023-03-21T06:58:07.601Z,912.00
2023-03-21T06:59:07.500Z,977.00
2023-03-21T07:00:07.658Z,962.00
2023-03-21T07:01:07.449Z,918.00
2023-03-21T07:02:07.489Z,875.00
2023-03-21T07:03:07.679Z,786.00
2023-03-21T07:04:07.432Z,782.00
2023-03-21T07:05:07.446Z,768.00
2023-03-21T07:06:07.427Z,752.00
2023-03-21T07:07:07.441Z,750.00
2023-03-21T07:08:07.418Z,733.00
2023-03-21T07:09:07.439Z,728.00
2023-03-21T07:10:07.402Z,733.00
2023-03-21T07:11:07.396Z,726.00
2023-03-21T07:12:07.427Z,719.00
2023-03-21T07:13:07.390Z,711.00
2023-03-21T07:14:07.390Z,705.00
2023-03-21T07:15:07.377Z,703.00
2023-03-21T07:16:07.370Z,700.00
2023-03-21T07:17:07.335Z,753.00
2023-03-21T07:18:07.326Z,702.00
2023-03-21T07:19:07.339Z,705.00
2023-03-21T07:20:07.319Z,697.00
2023-03-21T07:21:07.302Z,697.00
2023-03-21T07:22:07.314Z,707.00
2023-03-21T07:23:07.304Z,722.00
2023-03-21T07:24:07.275Z,731.00
2023-03-21T07:25:07.371Z,737.00
2023-03-21T07:26:07.302Z,787.00
2023-03-21T07:27:07.272Z,790.00
2023-03-21T07:28:07.345Z,796.00
2023-03-21T07:29:07.252Z,794.00
2023-03-21T07:30:07.286Z,754.00
2023-03-21T07:31:07.283Z,770.00
2023-03-21T07:32:07.262Z,786.00
2023-03-21T07:33:07.299Z,785.00
2023-03-21T07:34:07.339Z,767.00
2023-03-21T07:35:07.240Z,781.00
2023-03-21T07:36:07.288Z,782.00
2023-03-21T07:37:07.244Z,775.00
2023-03-21T07:38:07.305Z,772.00
2023-03-21T07:39:07.224Z,778.00
2023-03-21T07:40:07.219Z,780.00
2023-03-21T07:41:07.227Z,803.00
2023-03-21T07:42:07.222Z,816.00
2023-03-21T07:43:07.203Z,828.00
2023-03-21T07:45:07.710Z,828.00
2023-03-21T07:46:07.200Z,918.00
2023-03-21T07:47:07.152Z,961.00
2023-03-21T07:48:07.172Z,1007.00
2023-03-21T07:49:07.181Z,1037.00
2023-03-21T07:50:07.130Z,1071.00
2023-03-21T07:51:07.130Z,1149.00
2023-03-21T07:52:07.092Z,1175.00
2023-03-21T07:53:07.190Z,1191.00
2023-03-21T07:54:07.056Z,1201.00
2023-03-21T07:55:07.023Z,1268.00
2023-03-21T07:56:07.031Z,1293.00
2023-03-21T07:57:06.992Z,1307.00
2023-03-21T07:58:06.997Z,1330.00
2023-03-21T07:59:06.969Z,1359.00
2023-03-21T08:00:06.959Z,1378.00
2023-03-21T08:01:06.933Z,1404.00
2023-03-21T08:02:07.027Z,1437.00
2023-03-21T08:03:06.936Z,1486.00
2023-03-21T08:04:06.883Z,1492.00
2023-03-21T08:05:06.884Z,1501.00
2023-03-21T08:06:06.915Z,1514.00
2023-03-21T08:07:06.835Z,1534.00
2023-03-21T08:08:06.822Z,1568.00
2023-03-21T08:09:06.834Z,1590.00
2023-03-21T08:10:06.792Z,1611.00
2023-03-21T08:11:06.783Z,1630.00
2023-03-21T08:12:06.778Z,1652.00
2023-03-21T08:13:06.763Z,1671.00
2023-03-21T08:14:06.715Z,1685.00
2023-03-21T08:15:06.720Z,1713.00
2023-03-21T08:16:06.686Z,1735.00
2023-03-21T08:17:06.730Z,1751.00
2023-03-21T08:18:06.747Z,1767.00
2023-03-21T08:19:06.624Z,1774.00
2023-03-21T08:20:06.605Z,1784.00
2023-03-21T08:21:08.280Z,1799.00
2023-03-21T08:22:06.582Z,1815.00
2023-03-21T08:23:06.572Z,1829.00
2023-03-21T08:24:06.526Z,1850.00
2023-03-21T08:25:06.469Z,1907.00
2023-03-21T08:26:06.462Z,1940.00
2023-03-21T08:27:06.468Z,1951.00
2023-03-21T08:28:06.414Z,1959.00
2023-03-21T08:29:06.403Z,1975.00
2023-03-21T08:30:06.491Z,1988.00
2023-03-21T08:31:06.515Z,1991.00
2023-03-21T08:32:06.324Z,1997.00
2023-03-21T08:33:06.373Z,2011.00
2023-03-21T08:34:06.283Z,2035.00
2023-03-21T08:35:06.232Z,2059.00
2023-03-21T08:36:06.283Z,2073.00
2023-03-21T08:37:06.211Z,2090.00
2023-03-21T08:38:06.192Z,1912.00
2023-03-21T08:39:06.142Z,1969.00
2023-03-21T08:40:06.196Z,1823.00
2023-03-21T08:41:06.106Z,1680.00
2023-03-21T08:42:06.100Z,1655.00
2023-03-21T08:43:06.149Z,1697.00
2023-03-21T08:44:06.082Z,1704.00
2023-03-21T08:45:06.015Z,1721.00
2023-03-21T08:46:06.099Z,1737.00
2023-03-21T08:47:05.964Z,1748.00
2023-03-21T08:48:05.915Z,1765.00
2023-03-21T08:49:05.923Z,1780.00
2023-03-21T08:50:05.897Z,1785.00
2023-03-21T08:51:05.861Z,1799.00
2023-03-21T08:52:05.862Z,1811.00
2023-03-21T08:53:05.826Z,1818.00
2023-03-21T08:54:05.785Z,1824.00
2023-03-21T08:55:05.759Z,1836.00
2023-03-21T08:56:05.725Z,1847.00
2023-03-21T08:57:05.699Z,1916.00
2023-03-21T08:58:05.705Z,1942.00
2023-03-21T08:59:05.671Z,1967.00
2023-03-21T09:00:05.599Z,2026.00
2023-03-21T09:01:05.867Z,2042.00
2023-03-21T09:02:05.622Z,2037.00
2023-03-21T09:03:05.597Z,2045.00
2023-03-21T09:04:05.514Z,2055.00
2023-03-21T09:05:05.469Z,2070.00
2023-03-21T09:06:05.447Z,2084.00
2023-03-21T09:07:05.416Z,2101.00
2023-03-21T09:08:05.442Z,2118.00
2023-03-21T09:09:05.394Z,2137.00
2023-03-21T09:10:20.199Z,2146.00
2023-03-21T09:11:06.316Z,2159.00
2023-03-21T09:12:05.283Z,2168.00
2023-03-21T09:13:05.261Z,2182.00
2023-03-21T09:14:05.232Z,2222.00
2023-03-21T09:15:05.197Z,2337.00
2023-03-21T09:16:05.364Z,2343.00
2023-03-21T09:17:05.133Z,2324.00
2023-03-21T09:18:05.118Z,2318.00
2023-03-21T09:19:05.066Z,2332.00
2023-03-21T09:20:05.128Z,2351.00
2023-03-21T09:21:05.002Z,2364.00
2023-03-21T09:22:04.967Z,2376.00
2023-03-21T09:23:04.971Z,2396.00
2023-03-21T09:24:04.906Z,2413.00
2023-03-21T09:25:04.888Z,2428.00
2023-03-21T09:26:04.858Z,2447.00
2023-03-21T09:27:04.834Z,2468.00
2023-03-21T09:28:04.853Z,2487.00
2023-03-21T09:29:04.778Z,2527.00
2023-03-21T09:30:04.739Z,2581.00
2023-03-21T09:31:04.731Z,2607.00
2023-03-21T09:32:04.677Z,2609.00
2023-03-21T09:33:04.645Z,2611.00
2023-03-21T09:34:04.618Z,2522.00
2023-03-21T09:35:04.603Z,2535.00
2023-03-21T09:36:04.643Z,2538.00
2023-03-21T09:37:04.516Z,2517.00
2023-03-21T09:38:04.486Z,2444.00
2023-03-21T09:39:04.472Z,2192.00
2023-03-21T09:40:04.414Z,2167.00
2023-03-21T09:41:04.612Z,2142.00
2023-03-21T09:42:04.357Z,2055.00
2023-03-21T09:43:04.317Z,2058.00
2023-03-21T09:44:04.284Z,1903.00
2023-03-21T09:45:04.287Z,1931.00
2023-03-21T09:46:04.221Z,1944.00
2023-03-21T09:47:04.425Z,1938.00
2023-03-21T09:48:04.252Z,1832.00
2023-03-21T09:49:04.180Z,1681.00
2023-03-21T09:50:14.038Z,1258.00
2023-03-21T09:52:04.182Z,1550.00
2023-03-21T09:53:04.093Z,1703.00
2023-03-21T09:54:04.073Z,1709.00
2023-03-21T09:55:04.024Z,1707.00
2023-03-21T09:56:03.995Z,1722.00
2023-03-21T09:57:03.976Z,1732.00
2023-03-21T09:58:03.970Z,1767.00
2023-03-21T09:59:03.909Z,1794.00
2023-03-21T10:00:03.937Z,1855.00
2023-03-21T10:01:03.935Z,1892.00
2023-03-21T10:02:03.870Z,1916.00
2023-03-21T10:03:03.796Z,1940.00
2023-03-21T10:04:03.912Z,1968.00
2023-03-21T10:05:03.769Z,1979.00
2023-03-21T10:06:03.673Z,2004.00
2023-03-21T10:07:03.645Z,2046.00
2023-03-21T10:08:03.610Z,2076.00
2023-03-21T10:09:04.250Z,2089.00
2023-03-21T10:10:03.561Z,2098.00
2023-03-21T10:11:03.651Z,2108.00
2023-03-21T10:12:03.484Z,2112.00
2023-03-21T10:13:03.501Z,2122.00
2023-03-21T10:14:03.442Z,2133.00
2023-03-21T10:15:03.404Z,2119.00
2023-03-21T10:16:03.383Z,2055.00
2023-03-21T10:17:03.339Z,2068.00
2023-03-21T10:18:03.350Z,2070.00
2023-03-21T10:19:03.244Z,2059.00
2023-03-21T10:20:03.276Z,2049.00
2023-03-21T10:21:03.235Z,2042.00
2023-03-21T10:22:04.103Z,2038.00
2023-03-21T10:23:03.117Z,2030.00
2023-03-21T10:24:03.089Z,2024.00
2023-03-21T10:25:03.051Z,2012.00
2023-03-21T10:26:03.006Z,1994.00
2023-03-21T10:27:03.062Z,1983.00
2023-03-21T10:28:02.923Z,1972.00
2023-03-21T10:29:02.937Z,1961.00
2023-03-21T10:30:02.996Z,1952.00
2023-03-21T10:31:02.821Z,1951.00
2023-03-21T10:32:02.897Z,1944.00
2023-03-21T10:33:02.773Z,1934.00
2023-03-21T10:34:02.966Z,1926.00
2023-03-21T10:35:02.784Z,1821.00
2023-03-21T10:36:02.690Z,1647.00
2023-03-21T10:37:02.582Z,1388.00
2023-03-21T10:38:02.549Z,1420.00
2023-03-21T10:39:02.606Z,1515.00
2023-03-21T10:40:02.513Z,1508.00
2023-03-21T10:41:02.473Z,1518.00
2023-03-21T10:42:02.424Z,1532.00
2023-03-21T10:43:02.394Z,1544.00
2023-03-21T10:44:02.436Z,1550.00
2023-03-21T10:45:02.361Z,1574.00
2023-03-21T10:46:02.468Z,1578.00
2023-03-21T10:47:02.461Z,1604.00
2023-03-21T10:48:02.431Z,1707.00
2023-03-21T10:49:04.331Z,1732.00
2023-03-21T10:50:10.671Z,1749.00
2023-03-21T10:51:03.258Z,1751.00
2023-03-21T10:52:02.237Z,1760.00
2023-03-21T10:53:02.199Z,1775.00
2023-03-21T10:54:02.235Z,1782.00
2023-03-21T10:55:02.178Z,1781.00
2023-03-21T10:56:02.170Z,1775.00
2023-03-21T10:57:02.115Z,1783.00
2023-03-21T10:58:02.103Z,1803.00
2023-03-21T10:59:02.076Z,1828.00
2023-03-21T11:00:02.044Z,1839.00
2023-03-21T11:01:02.266Z,1859.00
2023-03-21T11:02:02.077Z,1888.00
2023-03-21T11:04:01.947Z,1913.00
2023-03-21T11:05:01.950Z,1932.00
2023-03-21T11:06:01.917Z,1951.00
2023-03-21T11:07:01.918Z,1972.00
2023-03-21T11:08:01.879Z,2000.00
2023-03-21T11:09:01.866Z,2015.00
2023-03-21T11:10:01.827Z,2033.00
2023-03-21T11:11:01.810Z,2048.00
2023-03-21T11:12:01.786Z,2045.00
2023-03-21T11:13:01.771Z,2042.00
2023-03-21T11:14:01.737Z,2054.00
2023-03-21T11:15:01.697Z,2071.00
2023-03-21T11:16:01.673Z,2078.00
2023-03-21T11:17:01.718Z,2084.00
2023-03-21T11:18:01.603Z,1947.00
2023-03-21T11:19:01.622Z,2052.00
2023-03-21T11:20:01.599Z,2005.00
2023-03-21T11:21:01.606Z,1900.00
2023-03-21T11:22:01.507Z,1916.00
2023-03-21T11:23:01.479Z,1858.00
2023-03-21T11:24:01.439Z,1678.00
2023-03-21T11:25:01.412Z,1565.00
2023-03-21T11:26:01.386Z,1547.00
2023-03-21T11:27:01.343Z,1571.00
2023-03-21T11:28:01.312Z,1542.00
2023-03-21T11:29:01.289Z,1555.00
2023-03-21T11:30:01.255Z,1411.00
2023-03-21T11:31:01.264Z,1470.00
2023-03-21T11:32:01.217Z,1483.00
2023-03-21T11:33:01.179Z,1475.00
2023-03-21T11:34:01.155Z,1320.00
2023-03-21T11:35:01.118Z,1338.00
2023-03-21T11:36:01.124Z,1401.00
2023-03-21T11:37:01.875Z,1408.00
2023-03-21T11:38:01.058Z,1422.00
2023-03-21T11:39:01.026Z,1423.00
2023-03-21T11:40:00.984Z,1419.00
2023-03-21T11:41:00.952Z,1406.00
2023-03-21T11:42:00.956Z,1399.00
2023-03-21T11:43:00.921Z,1396.00
2023-03-21T11:44:00.871Z,1386.00
2023-03-21T11:45:00.863Z,1379.00
2023-03-21T11:46:00.871Z,1370.00
2023-03-21T11:47:00.792Z,1361.00
2023-03-21T11:48:00.942Z,1349.00
2023-03-21T11:49:00.727Z,1322.00
2023-03-21T11:50:04.950Z,1305.00
2023-03-21T11:51:00.679Z,1297.00
2023-03-21T11:52:00.633Z,1292.00
2023-03-21T11:53:00.599Z,1290.00
2023-03-21T11:54:00.584Z,1283.00
2023-03-21T11:55:00.531Z,1269.00
2023-03-21T11:56:00.503Z,1256.00
2023-03-21T11:57:00.526Z,1248.00
2023-03-21T11:58:13.437Z,1244.00
2023-03-21T11:59:01.429Z,1246.00
2023-03-21T12:00:00.359Z,1246.00
2023-03-21T12:01:00.302Z,1250.00
2023-03-21T12:02:00.821Z,1250.00
2023-03-21T12:03:00.252Z,1250.00
2023-03-21T12:04:00.228Z,1244.00
2023-03-21T12:05:00.160Z,1243.00
2023-03-21T12:06:00.119Z,1243.00
2023-03-21T12:07:00.100Z,1243.00
2023-03-21T12:08:00.038Z,1244.00
2023-03-21T12:08:59.994Z,1243.00
2023-03-21T12:09:59.940Z,1244.00
2023-03-21T12:10:59.929Z,1245.00
2023-03-21T12:11:59.891Z,1243.00
2023-03-21T12:12:59.852Z,1243.00
2023-03-21T12:13:59.778Z,1241.00
2023-03-21T12:14:59.782Z,1246.00
2023-03-21T12:15:59.765Z,1246.00
2023-03-21T12:16:59.713Z,1241.00
2023-03-21T12:17:59.646Z,1240.00
2023-03-21T12:18:59.620Z,1240.00
2023-03-21T12:19:59.588Z,1242.00
2023-03-21T12:20:59.607Z,1243.00
2023-03-21T12:21:59.486Z,1244.00